Time;durP1;ratioP1;P1;durP2;ratioP2;P2;SDS_P1;SDS_P2;PMS_P1;PMS_P2;Temp;Humidity;BMP_temperature;BMP_pressure;BME280_temperature;BME280_humidity;BME280_pressure;Samples;Min_cycle;Max_cycle;Signal;HPM_P1;HPM_P2
2020/12/27 00:00:13;;;;;;;8.60;3.80;;;1.60;77.30;;;;;;10054726;28;20035;-75
2020/12/27 00:05:05;;;;;;;6.53;3.10;;;1.50;77.20;;;;;;10065635;28;20021;-75
2020/12/27 00:09:56;;;;;;;7.50;3.05;;;1.60;77.30;;;;;;10063798;28;20680;-74
2020/12/27 00:14:47;;;;;;;6.50;3.53;;;1.50;77.40;;;;;;10055346;28;20021;-75
2020/12/27 00:19:38;;;;;;;4.53;2.35;;;1.50;77.60;;;;;;10050495;28;20094;-75
2020/12/27 00:24:29;;;;;;;5.43;2.67;;;1.50;77.70;;;;;;10052846;28;20037;-75
2020/12/27 00:29:21;;;;;;;7.80;4.25;;;1.40;77.70;;;;;;10047038;28;20036;-74
2020/12/27 00:34:12;;;;;;;9.32;2.88;;;1.50;77.70;;;;;;10047666;28;20159;-76
2020/12/27 00:39:06;;;;;;;6.13;2.58;;;1.50;77.50;;;;;;10048966;28;22213;-75
2020/12/27 00:43:57;;;;;;;6.60;2.78;;;1.50;77.60;;;;;;10051753;28;20037;-74
2020/12/27 00:48:48;;;;;;;10.93;2.63;;;1.50;77.60;;;;;;10054540;28;20021;-74
2020/12/27 00:53:38;;;;;;;9.13;3.17;;;1.50;78.40;;;;;;10049501;28;20079;-73
2020/12/27 00:58:31;;;;;;;5.55;2.60;;;1.50;77.80;;;;;;10048812;28;20029;-75
2020/12/27 01:03:23;;;;;;;4.05;2.08;;;1.50;77.90;;;;;;10050846;28;20124;-74
2020/12/27 01:08:13;;;;;;;7.00;2.90;;;1.50;77.90;;;;;;10052698;28;20041;-75
2020/12/27 01:13:04;;;;;;;8.50;2.22;;;1.50;77.80;;;;;;10054160;28;20056;-76
2020/12/27 01:17:54;;;;;;;3.15;1.92;;;1.50;77.90;;;;;;10048574;28;20128;-74
2020/12/27 01:22:45;;;;;;;4.00;2.25;;;1.60;77.90;;;;;;10053104;28;20033;-75
2020/12/27 01:27:36;;;;;;;4.78;2.92;;;1.50;77.90;;;;;;10059736;28;20104;-76
2020/12/27 01:32:27;;;;;;;3.90;2.28;;;1.50;77.90;;;;;;10051100;28;20079;-74
2020/12/27 01:37:18;;;;;;;6.80;2.35;;;1.50;78.00;;;;;;10052700;28;20681;-74
2020/12/27 01:42:09;;;;;;;4.18;2.22;;;1.50;78.00;;;;;;10052872;28;20032;-74
2020/12/27 01:47:12;;;;;;;7.53;4.15;;;1.60;77.90;;;;;;10049925;28;20877;-76
2020/12/27 01:52:04;;;;;;;3.92;2.17;;;1.60;78.10;;;;;;10055920;28;20034;-75
2020/12/27 01:56:56;;;;;;;5.68;2.17;;;1.60;78.00;;;;;;10061207;28;20057;-75
2020/12/27 02:01:47;;;;;;;7.40;2.72;;;1.70;78.00;;;;;;10054705;28;20033;-73
2020/12/27 02:06:42;;;;;;;4.50;2.70;;;1.70;77.80;;;;;;10061381;28;20108;-74
2020/12/27 02:11:34;;;;;;;6.43;2.53;;;1.60;78.00;;;;;;10059234;28;20022;-73
2020/12/27 02:16:29;;;;;;;4.28;2.72;;;1.70;78.10;;;;;;10058793;28;20415;-74
2020/12/27 02:21:20;;;;;;;5.23;2.43;;;1.60;78.00;;;;;;10064022;28;20152;-74
2020/12/27 02:26:11;;;;;;;5.55;2.13;;;1.60;78.30;;;;;;10059571;28;20704;-76
2020/12/27 02:31:02;;;;;;;5.90;2.70;;;1.60;78.20;;;;;;10058327;28;20087;-75
2020/12/27 02:35:52;;;;;;;6.63;2.83;;;1.60;78.10;;;;;;10055240;28;20064;-74
2020/12/27 02:40:44;;;;;;;3.88;2.17;;;1.50;78.20;;;;;;10065183;28;20042;-75
2020/12/27 02:45:34;;;;;;;6.15;2.65;;;1.60;78.20;;;;;;10057744;28;20025;-75
2020/12/27 02:50:25;;;;;;;7.40;3.00;;;1.50;78.30;;;;;;10054197;28;20064;-75
2020/12/27 02:55:15;;;;;;;5.50;2.38;;;1.40;78.50;;;;;;10051593;28;20499;-74
2020/12/27 03:00:06;;;;;;;7.20;2.63;;;1.40;78.70;;;;;;10055015;28;20041;-75
2020/12/27 03:04:57;;;;;;;5.65;2.67;;;1.30;78.70;;;;;;10052053;28;20113;-75
2020/12/27 03:09:47;;;;;;;4.78;2.30;;;1.40;78.70;;;;;;10057000;28;20116;-75
2020/12/27 03:14:38;;;;;;;4.75;1.92;;;1.30;78.60;;;;;;10053883;28;20040;-75
2020/12/27 03:19:28;;;;;;;8.90;2.78;;;1.30;78.50;;;;;;10054163;28;20120;-75
2020/12/27 03:24:19;;;;;;;7.35;2.83;;;1.30;78.60;;;;;;10057366;28;20029;-76
2020/12/27 03:29:09;;;;;;;6.80;2.95;;;1.30;78.60;;;;;;10062558;28;20029;-74
2020/12/27 03:34:00;;;;;;;7.25;2.97;;;1.20;78.70;;;;;;10051137;28;20029;-74
2020/12/27 03:38:52;;;;;;;5.82;2.45;;;1.30;78.60;;;;;;10053766;28;20030;-74
2020/12/27 03:43:42;;;;;;;6.75;3.53;;;1.30;78.70;;;;;;10059224;28;20045;-75
2020/12/27 03:48:33;;;;;;;3.58;2.65;;;1.30;78.60;;;;;;10054188;28;20426;-75
2020/12/27 03:53:23;;;;;;;5.15;2.55;;;1.30;78.50;;;;;;10051013;28;20492;-76
2020/12/27 03:58:14;;;;;;;4.45;2.33;;;1.30;78.60;;;;;;10058387;28;20032;-76
2020/12/27 04:03:04;;;;;;;5.03;2.33;;;1.30;78.70;;;;;;10046328;28;20049;-75
2020/12/27 04:07:56;;;;;;;3.33;1.88;;;1.30;78.70;;;;;;10050136;28;20105;-74
2020/12/27 04:12:46;;;;;;;7.32;3.25;;;1.30;78.50;;;;;;10053206;28;20072;-75
2020/12/27 04:17:37;;;;;;;3.85;2.33;;;1.30;78.60;;;;;;10052885;28;20136;-75
2020/12/27 04:22:28;;;;;;;5.60;2.30;;;1.40;78.60;;;;;;10050815;28;20040;-74
2020/12/27 04:27:19;;;;;;;3.15;2.08;;;1.40;78.60;;;;;;10054954;28;20100;-75
2020/12/27 04:32:09;;;;;;;4.00;1.77;;;1.50;78.40;;;;;;10051579;28;20041;-75
2020/12/27 04:37:00;;;;;;;11.77;2.80;;;1.50;78.50;;;;;;10046555;28;20040;-76
2020/12/27 04:41:50;;;;;;;4.50;1.67;;;1.50;78.40;;;;;;10054449;28;20036;-74
2020/12/27 04:46:41;;;;;;;4.90;2.40;;;1.50;78.60;;;;;;10052487;28;20034;-76
2020/12/27 04:51:32;;;;;;;2.30;1.55;;;1.50;78.20;;;;;;10055497;28;20487;-75
2020/12/27 04:56:26;;;;;;;5.40;1.95;;;1.60;78.20;;;;;;10046583;28;20048;-75
2020/12/27 05:01:17;;;;;;;2.92;1.70;;;1.60;78.00;;;;;;10046186;28;20495;-74
2020/12/27 05:06:14;;;;;;;3.92;1.50;;;1.60;78.00;;;;;;10053613;28;20033;-75
2020/12/27 05:11:05;;;;;;;1.77;1.10;;;1.60;77.70;;;;;;10050131;28;20050;-75
2020/12/27 05:15:56;;;;;;;2.88;1.45;;;1.70;77.50;;;;;;10047970;28;20037;-74
2020/12/27 05:20:50;;;;;;;2.13;1.20;;;1.70;77.30;;;;;;10043739;28;20061;-75
2020/12/27 05:25:41;;;;;;;1.52;1.05;;;1.70;77.10;;;;;;10057407;28;20096;-73
2020/12/27 05:30:32;;;;;;;2.63;1.25;;;1.70;77.00;;;;;;10063238;28;20026;-75
2020/12/27 05:35:23;;;;;;;1.23;1.08;;;1.70;76.70;;;;;;10055636;28;20037;-74
2020/12/27 05:40:14;;;;;;;2.85;1.13;;;1.70;76.40;;;;;;10061623;28;20033;-75
2020/12/27 05:45:14;;;;;;;2.42;1.20;;;1.60;76.50;;;;;;10060446;28;20033;-73
2020/12/27 05:50:07;;;;;;;2.92;1.27;;;1.60;76.40;;;;;;10054267;28;20029;-74
2020/12/27 05:55:03;;;;;;;4.32;1.48;;;1.60;76.20;;;;;;10051834;28;20034;-74
2020/12/27 05:59:55;;;;;;;1.45;1.20;;;1.70;76.10;;;;;;10053120;28;20043;-75
2020/12/27 06:05:08;;;;;;;3.15;1.40;;;1.60;75.80;;;;;;10057860;28;20045;-74
2020/12/27 06:10:18;;;;;;;2.17;1.20;;;1.60;75.40;;;;;;10052949;28;20037;-75
2020/12/27 06:15:10;;;;;;;3.15;1.55;;;1.60;75.50;;;;;;10053429;28;20033;-69
2020/12/27 06:20:07;;;;;;;2.00;1.00;;;1.60;75.50;;;;;;10035756;28;20054;-69
2020/12/27 06:25:00;;;;;;;8.90;2.15;;;1.50;75.30;;;;;;10053551;28;20055;-70
2020/12/27 06:30:01;;;;;;;2.60;1.10;;;1.50;75.90;;;;;;10049351;28;20033;-68
2020/12/27 06:34:53;;;;;;;1.77;1.15;;;1.50;75.20;;;;;;10050819;28;20032;-73
2020/12/27 06:39:45;;;;;;;4.05;1.25;;;1.50;75.20;;;;;;10049989;28;20033;-74
2020/12/27 06:44:47;;;;;;;0.88;0.75;;;1.60;75.10;;;;;;10057439;28;20352;-74
2020/12/27 06:49:39;;;;;;;4.07;1.30;;;1.60;75.10;;;;;;10069234;28;20033;-74
2020/12/27 06:54:43;;;;;;;2.90;1.20;;;1.50;75.00;;;;;;10064642;28;20320;-69
2020/12/27 06:59:37;;;;;;;1.85;1.15;;;1.60;75.10;;;;;;10043527;28;20399;-68
2020/12/27 07:04:36;;;;;;;1.77;1.30;;;1.70;74.80;;;;;;10034523;28;20709;-69
2020/12/27 07:09:27;;;;;;;2.42;1.25;;;1.70;74.80;;;;;;10049390;28;20037;-68
2020/12/27 07:14:20;;;;;;;1.52;0.88;;;1.70;74.60;;;;;;10044951;28;20021;-70
2020/12/27 07:19:18;;;;;;;1.42;1.30;;;1.70;74.30;;;;;;10051055;28;20470;-69
2020/12/27 07:24:08;;;;;;;1.40;0.75;;;1.60;74.30;;;;;;10045948;28;20037;-68
2020/12/27 07:29:06;;;;;;;2.30;1.58;;;1.70;74.40;;;;;;10043662;28;20029;-68
2020/12/27 07:33:58;;;;;;;1.92;1.15;;;1.60;74.20;;;;;;10049256;28;20091;-68
2020/12/27 07:38:59;;;;;;;2.28;1.13;;;1.70;74.30;;;;;;10046461;28;20033;-68
2020/12/27 07:43:50;;;;;;;1.30;1.05;;;1.70;74.10;;;;;;10041841;28;20045;-69
2020/12/27 07:48:41;;;;;;;2.05;1.08;;;1.80;74.10;;;;;;10050654;28;20070;-75
2020/12/27 07:53:32;;;;;;;2.03;1.27;;;1.80;74.00;;;;;;10049289;28;20116;-75
2020/12/27 07:58:23;;;;;;;18.85;2.40;;;1.90;74.50;;;;;;10048519;28;20715;-75
2020/12/27 08:03:13;;;;;;;2.80;1.17;;;1.90;73.70;;;;;;10054958;28;20531;-74
2020/12/27 08:08:12;;;;;;;1.10;0.80;;;1.90;73.60;;;;;;10052375;28;20888;-75
2020/12/27 08:13:04;;;;;;;2.50;1.00;;;2.00;73.50;;;;;;10055222;28;20025;-74
2020/12/27 08:17:59;;;;;;;1.20;1.02;;;2.00;73.40;;;;;;10056931;28;20057;-74
2020/12/27 08:23:15;;;;;;;4.13;2.33;;;2.10;73.40;;;;;;10047295;28;20415;-74
2020/12/27 08:28:08;;;;;;;1.33;0.90;;;2.10;73.40;;;;;;10042792;28;20403;-74
2020/12/27 08:33:18;;;;;;;1.85;1.05;;;2.10;73.10;;;;;;10047860;28;20034;-74
2020/12/27 08:38:30;;;;;;;1.95;0.85;;;2.20;73.00;;;;;;10044354;28;20034;-74
2020/12/27 08:43:44;;;;;;;2.58;1.40;;;2.20;73.00;;;;;;10054845;28;20030;-75
2020/12/27 08:48:42;;;;;;;1.15;0.95;;;2.30;72.90;;;;;;10050972;28;20029;-75
2020/12/27 08:53:42;;;;;;;1.45;1.13;;;2.30;72.40;;;;;;10048357;28;20037;-75
2020/12/27 08:58:33;;;;;;;2.90;1.10;;;2.40;72.50;;;;;;10046381;28;20053;-76
2020/12/27 09:03:24;;;;;;;2.83;1.00;;;2.50;72.50;;;;;;10044788;28;20061;-73
2020/12/27 09:08:19;;;;;;;3.47;1.33;;;2.40;71.90;;;;;;10052219;28;20049;-74
2020/12/27 09:13:14;;;;;;;1.42;0.68;;;2.40;72.00;;;;;;10046017;28;20041;-74
2020/12/27 09:18:09;;;;;;;1.50;1.07;;;2.50;71.80;;;;;;10045855;28;20053;-74
2020/12/27 09:23:00;;;;;;;2.85;1.20;;;2.60;72.20;;;;;;10044372;28;20037;-75
2020/12/27 09:27:52;;;;;;;6.07;1.88;;;2.60;71.40;;;;;;10048216;28;20033;-74
2020/12/27 09:32:43;;;;;;;1.67;0.85;;;2.70;71.20;;;;;;10052418;28;20034;-74
2020/12/27 09:37:34;;;;;;;1.60;1.13;;;2.80;71.20;;;;;;10051038;28;20025;-69
2020/12/27 09:42:27;;;;;;;1.25;0.90;;;2.90;70.60;;;;;;10041037;28;20117;-69
2020/12/27 09:47:27;;;;;;;2.22;1.08;;;3.00;70.50;;;;;;10041649;28;20128;-69
2020/12/27 09:52:17;;;;;;;1.08;0.77;;;3.10;70.20;;;;;;10018113;28;20057;-69
2020/12/27 09:57:14;;;;;;;1.23;0.80;;;3.10;69.90;;;;;;10044460;28;20431;-69
2020/12/27 10:02:04;;;;;;;3.85;1.08;;;3.20;69.80;;;;;;10040851;28;20407;-68
2020/12/27 10:06:55;;;;;;;2.13;1.05;;;3.20;69.30;;;;;;10045419;28;20061;-68
2020/12/27 10:11:46;;;;;;;1.83;0.75;;;3.30;69.50;;;;;;10050486;28;20033;-69
2020/12/27 10:16:36;;;;;;;0.95;0.82;;;3.40;69.20;;;;;;10054158;28;20040;-70
2020/12/27 10:21:27;;;;;;;1.75;0.98;;;3.50;69.20;;;;;;10048899;28;20428;-71
2020/12/27 10:26:18;;;;;;;2.83;1.05;;;3.50;69.20;;;;;;10049236;28;20430;-70
2020/12/27 10:31:09;;;;;;;0.90;0.75;;;3.60;69.40;;;;;;10053238;28;20067;-69
2020/12/27 10:36:00;;;;;;;2.20;1.42;;;3.70;69.10;;;;;;10053131;28;20021;-68
2020/12/27 10:40:51;;;;;;;2.67;0.85;;;3.70;68.50;;;;;;10052559;28;20029;-75
2020/12/27 10:45:41;;;;;;;1.65;0.80;;;3.70;68.70;;;;;;10047297;28;20034;-69
2020/12/27 10:50:32;;;;;;;1.88;1.10;;;3.70;68.50;;;;;;10049910;28;20037;-68
2020/12/27 10:55:22;;;;;;;2.60;0.95;;;3.70;68.60;;;;;;10045558;28;21532;-69
2020/12/27 11:00:13;;;;;;;1.35;0.68;;;3.70;68.30;;;;;;10048449;28;20384;-69
2020/12/27 11:05:04;;;;;;;1.65;0.82;;;3.70;68.10;;;;;;10052291;28;20515;-69
2020/12/27 11:09:55;;;;;;;0.82;0.45;;;3.70;67.90;;;;;;10052241;28;20038;-68
2020/12/27 11:14:46;;;;;;;2.20;1.10;;;3.80;67.70;;;;;;10048491;28;20407;-69
2020/12/27 11:19:37;;;;;;;4.75;0.90;;;3.80;67.20;;;;;;10046135;28;20103;-70
2020/12/27 11:24:28;;;;;;;2.75;0.60;;;3.90;67.40;;;;;;10052747;28;20517;-70
2020/12/27 11:29:19;;;;;;;0.70;0.60;;;3.90;67.00;;;;;;10043483;28;20095;-68
2020/12/27 11:34:09;;;;;;;1.80;0.40;;;3.90;66.70;;;;;;10048276;28;20037;-68
2020/12/27 11:39:00;;;;;;;1.85;1.02;;;4.00;66.40;;;;;;10048794;28;20084;-68
2020/12/27 11:43:50;;;;;;;1.13;0.57;;;4.00;66.50;;;;;;10046302;28;20136;-69
2020/12/27 11:48:41;;;;;;;0.90;0.60;;;4.10;66.20;;;;;;10049371;28;20080;-69
2020/12/27 11:53:32;;;;;;;1.00;0.65;;;4.10;66.30;;;;;;10042524;28;20044;-69
2020/12/27 11:58:22;;;;;;;0.73;0.30;;;4.20;66.30;;;;;;10044402;28;20029;-69
2020/12/27 12:03:13;;;;;;;1.45;0.52;;;4.30;66.10;;;;;;10045691;28;20491;-69
2020/12/27 12:08:04;;;;;;;0.35;0.35;;;4.30;66.50;;;;;;10046175;28;20049;-69
2020/12/27 12:12:54;;;;;;;1.15;0.45;;;4.40;66.30;;;;;;10045850;28;20061;-69
2020/12/27 12:17:45;;;;;;;0.73;0.47;;;4.40;66.20;;;;;;10046431;28;20046;-69
2020/12/27 12:22:35;;;;;;;0.45;0.40;;;4.40;66.30;;;;;;10045715;28;20392;-68
2020/12/27 12:27:26;;;;;;;0.90;0.60;;;4.50;66.50;;;;;;10043120;28;20045;-69
2020/12/27 12:32:16;;;;;;;2.15;0.55;;;4.50;66.60;;;;;;10043263;28;20033;-69
2020/12/27 12:37:07;;;;;;;2.88;1.23;;;4.50;66.40;;;;;;10041941;28;20128;-69
2020/12/27 12:41:58;;;;;;;0.90;0.40;;;4.60;66.50;;;;;;10044488;28;20026;-69
2020/12/27 12:46:48;;;;;;;0.70;0.52;;;4.70;66.60;;;;;;10049359;28;20487;-69
2020/12/27 12:51:39;;;;;;;0.70;0.70;;;4.70;66.60;;;;;;10042249;28;20106;-69
2020/12/27 12:56:31;;;;;;;0.68;0.50;;;4.80;66.70;;;;;;10047355;28;20033;-69
2020/12/27 13:01:23;;;;;;;4.25;0.77;;;4.80;66.30;;;;;;10044434;28;20456;-69
2020/12/27 13:06:14;;;;;;;0.82;0.43;;;4.90;66.60;;;;;;10040416;28;20065;-69
2020/12/27 13:11:07;;;;;;;0.43;0.35;;;4.90;66.70;;;;;;10042053;28;20072;-67
2020/12/27 13:15:58;;;;;;;0.45;0.43;;;4.90;66.70;;;;;;10044525;28;20503;-68
2020/12/27 13:20:49;;;;;;;0.43;0.32;;;5.00;66.70;;;;;;10040620;28;20053;-69
2020/12/27 13:25:40;;;;;;;0.80;0.47;;;5.00;66.70;;;;;;10046417;28;20475;-70
2020/12/27 13:30:30;;;;;;;0.75;0.52;;;5.00;66.70;;;;;;10041691;28;20113;-69
2020/12/27 13:35:21;;;;;;;2.58;0.50;;;5.00;66.40;;;;;;10042802;28;20071;-70
2020/12/27 13:40:11;;;;;;;3.92;1.05;;;5.10;66.20;;;;;;10043322;28;20040;-69
2020/12/27 13:45:04;;;;;;;2.33;0.75;;;5.10;66.30;;;;;;10046904;28;20031;-73
2020/12/27 13:49:54;;;;;;;0.93;0.52;;;5.10;66.00;;;;;;10056521;28;20805;-74
2020/12/27 13:54:45;;;;;;;2.10;0.60;;;5.10;66.00;;;;;;10058311;28;20033;-74
2020/12/27 13:59:36;;;;;;;0.82;0.50;;;5.10;65.60;;;;;;10053412;28;20112;-75
2020/12/27 14:04:27;;;;;;;1.95;0.57;;;5.20;65.70;;;;;;10048310;28;20036;-69
2020/12/27 14:09:17;;;;;;;1.05;0.50;;;5.20;65.30;;;;;;10051643;28;20042;-73
2020/12/27 14:14:08;;;;;;;1.52;0.57;;;5.20;64.90;;;;;;10056940;28;20029;-74
2020/12/27 14:19:01;;;;;;;2.13;0.63;;;5.20;64.70;;;;;;10057535;28;20049;-75
2020/12/27 14:23:52;;;;;;;0.50;0.43;;;5.30;64.70;;;;;;10049982;28;20033;-75
2020/12/27 14:28:44;;;;;;;0.47;0.45;;;5.30;64.50;;;;;;10050007;28;20102;-73
2020/12/27 14:33:34;;;;;;;2.38;0.70;;;5.30;63.40;;;;;;10059460;28;20063;-75
2020/12/27 14:38:25;;;;;;;1.20;0.57;;;5.30;63.60;;;;;;10060841;28;20051;-74
2020/12/27 14:43:15;;;;;;;0.52;0.40;;;5.40;63.20;;;;;;10051023;28;20121;-75
2020/12/27 14:48:06;;;;;;;1.92;0.63;;;5.40;62.90;;;;;;10053267;28;20168;-74
2020/12/27 14:52:57;;;;;;;1.00;0.55;;;5.40;62.40;;;;;;10052944;28;20037;-75
2020/12/27 14:57:47;;;;;;;0.93;0.55;;;5.40;62.40;;;;;;10051297;28;20140;-73
2020/12/27 15:02:38;;;;;;;0.65;0.47;;;5.40;61.50;;;;;;10052133;28;20035;-75
2020/12/27 15:07:29;;;;;;;1.40;0.50;;;5.50;60.90;;;;;;10051279;28;20061;-69
2020/12/27 15:12:19;;;;;;;0.52;0.38;;;5.50;60.40;;;;;;10051585;28;20045;-74
2020/12/27 15:17:10;;;;;;;1.75;0.50;;;5.60;60.10;;;;;;10050066;28;20069;-74
2020/12/27 15:22:00;;;;;;;0.88;0.40;;;5.70;59.40;;;;;;10053527;28;20073;-75
2020/12/27 15:26:51;;;;;;;0.90;0.40;;;5.70;59.10;;;;;;10058172;28;20037;-75
2020/12/27 15:31:41;;;;;;;0.95;0.50;;;5.70;59.00;;;;;;10056569;28;20029;-75
2020/12/27 15:36:32;;;;;;;1.10;0.70;;;5.70;58.30;;;;;;10050007;28;20029;-74
2020/12/27 15:41:22;;;;;;;2.75;0.90;;;5.80;57.70;;;;;;10050045;28;20407;-74
2020/12/27 15:46:13;;;;;;;1.40;0.73;;;5.80;57.60;;;;;;10049909;28;20033;-74
2020/12/27 15:51:04;;;;;;;1.33;0.57;;;5.70;57.90;;;;;;10052654;28;20045;-74
2020/12/27 15:55:55;;;;;;;1.45;0.65;;;5.70;58.10;;;;;;10051089;28;20098;-72
2020/12/27 16:00:46;;;;;;;1.50;0.77;;;5.70;58.00;;;;;;10046597;28;20040;-73
2020/12/27 16:05:37;;;;;;;1.30;0.60;;;5.70;57.50;;;;;;10049296;28;20033;-73
2020/12/27 16:10:28;;;;;;;1.63;0.70;;;5.70;57.20;;;;;;10051106;28;20047;-74
2020/12/27 16:15:18;;;;;;;0.50;0.50;;;5.70;57.10;;;;;;10045967;28;20562;-74
2020/12/27 16:20:09;;;;;;;0.85;0.52;;;5.80;57.50;;;;;;10049075;28;20467;-73
2020/12/27 16:24:59;;;;;;;2.22;0.57;;;5.90;57.80;;;;;;10051378;28;20033;-73
2020/12/27 16:29:51;;;;;;;1.20;0.60;;;6.00;58.10;;;;;;10052612;28;20036;-74
2020/12/27 16:34:42;;;;;;;0.68;0.40;;;6.10;58.50;;;;;;10047070;28;20040;-75
2020/12/27 16:39:33;;;;;;;0.85;0.43;;;6.20;58.80;;;;;;10046401;28;20029;-69
2020/12/27 16:44:23;;;;;;;1.20;0.55;;;6.20;58.80;;;;;;10046120;28;20030;-68
2020/12/27 16:49:14;;;;;;;1.10;0.75;;;6.30;59.00;;;;;;10043275;28;20026;-69
2020/12/27 16:54:04;;;;;;;0.70;0.63;;;6.30;59.00;;;;;;10041783;28;20090;-69
2020/12/27 16:58:55;;;;;;;1.20;0.60;;;6.30;59.10;;;;;;10045005;28;20053;-76
2020/12/27 17:03:46;;;;;;;1.95;1.10;;;6.40;59.00;;;;;;10051637;28;20037;-75
2020/12/27 17:08:36;;;;;;;0.85;0.65;;;6.50;58.70;;;;;;10044051;28;20021;-75
2020/12/27 17:13:27;;;;;;;1.00;0.90;;;6.60;59.00;;;;;;10045121;28;20033;-76
2020/12/27 17:18:17;;;;;;;1.13;0.63;;;6.70;58.90;;;;;;10056911;28;20603;-75
2020/12/27 17:23:11;;;;;;;2.17;0.95;;;6.90;59.00;;;;;;10071411;28;20391;-76
2020/12/27 17:28:02;;;;;;;2.00;0.80;;;7.00;59.20;;;;;;10063273;28;20025;-75
2020/12/27 17:32:53;;;;;;;1.55;0.80;;;7.00;59.80;;;;;;10058917;28;20037;-70
2020/12/27 17:37:43;;;;;;;1.05;0.70;;;7.10;60.40;;;;;;10059536;28;20025;-70
2020/12/27 17:42:37;;;;;;;1.30;1.15;;;7.10;60.80;;;;;;10057286;28;20035;-70
2020/12/27 17:47:27;;;;;;;3.75;1.27;;;7.10;61.20;;;;;;10070318;28;20029;-69
2020/12/27 17:52:18;;;;;;;3.72;1.15;;;7.10;61.70;;;;;;10058676;28;20025;-74
2020/12/27 17:57:08;;;;;;;2.28;1.10;;;7.10;62.00;;;;;;10058911;28;20075;-75
2020/12/27 18:01:59;;;;;;;3.45;1.67;;;7.10;62.30;;;;;;10059624;28;20369;-75
2020/12/27 18:06:52;;;;;;;1.98;1.00;;;7.10;62.40;;;;;;10066442;28;20124;-75
2020/12/27 18:11:43;;;;;;;1.50;0.70;;;7.10;62.60;;;;;;10064235;28;21664;-75
2020/12/27 18:16:34;;;;;;;3.97;0.68;;;7.20;62.60;;;;;;10056820;28;20021;-75
2020/12/27 18:21:25;;;;;;;3.72;0.88;;;7.20;62.70;;;;;;10053519;28;20064;-75
2020/12/27 18:26:16;;;;;;;3.55;1.63;;;7.30;62.90;;;;;;10055844;28;20123;-75
2020/12/27 18:31:09;;;;;;;7.63;2.60;;;7.40;63.00;;;;;;10051687;28;20116;-70
2020/12/27 18:35:59;;;;;;;3.00;1.40;;;7.40;63.00;;;;;;10049169;28;20049;-70
2020/12/27 18:40:50;;;;;;;1.35;0.70;;;7.50;63.10;;;;;;10043162;28;20064;-70
2020/12/27 18:45:40;;;;;;;3.95;2.10;;;7.60;63.00;;;;;;10047972;28;20497;-70
2020/12/27 18:50:31;;;;;;;6.13;1.55;;;7.60;63.30;;;;;;10046986;28;20136;-70
2020/12/27 18:55:24;;;;;;;2.45;1.20;;;7.60;63.50;;;;;;10041228;28;20048;-70
2020/12/27 19:00:14;;;;;;;5.78;1.52;;;7.80;63.60;;;;;;10047942;28;20033;-71
2020/12/27 19:05:05;;;;;;;3.05;0.90;;;7.90;63.70;;;;;;10051034;28;20030;-70
2020/12/27 19:09:55;;;;;;;2.10;0.90;;;7.90;63.80;;;;;;10047414;28;20064;-69
2020/12/27 19:14:46;;;;;;;0.77;0.55;;;8.00;64.00;;;;;;10049698;28;20025;-70
2020/12/27 19:19:37;;;;;;;1.20;0.60;;;8.00;64.30;;;;;;10048187;28;20045;-72
2020/12/27 19:24:27;;;;;;;0.93;0.47;;;8.10;64.30;;;;;;10047557;28;20030;-76
2020/12/27 19:29:19;;;;;;;0.73;0.73;;;8.10;64.50;;;;;;10059319;28;20025;-75
2020/12/27 19:34:09;;;;;;;1.90;1.02;;;8.10;64.70;;;;;;10049942;28;20060;-76
2020/12/27 19:39:03;;;;;;;1.65;0.75;;;8.10;65.30;;;;;;10052733;28;20094;-77
2020/12/27 19:43:54;;;;;;;0.75;0.50;;;7.90;65.40;;;;;;10052557;28;20471;-77
2020/12/27 19:48:45;;;;;;;2.03;0.50;;;7.90;66.00;;;;;;10049978;28;20037;-69
2020/12/27 19:53:36;;;;;;;1.88;0.88;;;7.80;66.40;;;;;;10047805;28;20518;-76
2020/12/27 19:58:27;;;;;;;1.63;0.80;;;7.70;66.70;;;;;;10053897;28;20032;-76
2020/12/27 20:03:19;;;;;;;1.08;0.50;;;7.70;67.30;;;;;;10049919;28;20471;-77
2020/12/27 20:08:10;;;;;;;2.45;1.75;;;7.60;67.30;;;;;;10047381;28;20060;-76
2020/12/27 20:13:06;;;;;;;1.05;0.50;;;7.70;67.50;;;;;;10049076;28;20030;-75
2020/12/27 20:17:57;;;;;;;1.80;1.08;;;7.90;68.20;;;;;;10045265;28;20567;-71
2020/12/27 20:22:48;;;;;;;1.35;0.70;;;8.00;67.50;;;;;;10048507;28;20105;-76
2020/12/27 20:27:38;;;;;;;2.45;0.57;;;8.00;67.90;;;;;;10057384;28;20041;-76
2020/12/27 20:32:29;;;;;;;0.63;0.60;;;8.10;68.10;;;;;;10044933;28;20034;-75
2020/12/27 20:37:20;;;;;;;0.55;0.43;;;8.20;68.20;;;;;;10050463;28;20044;-75
2020/12/27 20:42:11;;;;;;;0.47;0.35;;;8.10;68.30;;;;;;10034414;28;20040;-72
2020/12/27 20:47:01;;;;;;;0.73;0.40;;;8.10;68.80;;;;;;10046602;28;20033;-78
2020/12/27 20:51:52;;;;;;;2.80;0.77;;;8.10;69.00;;;;;;10056367;28;20727;-75
2020/12/27 20:56:44;;;;;;;0.77;0.40;;;8.00;69.40;;;;;;10055366;28;20037;-76
2020/12/27 21:01:35;;;;;;;0.75;0.52;;;7.90;70.80;;;;;;10048203;28;20411;-75
2020/12/27 21:06:25;;;;;;;0.50;0.50;;;7.90;70.30;;;;;;10055706;28;20039;-75
2020/12/27 21:11:17;;;;;;;1.05;0.40;;;7.80;70.70;;;;;;10046619;28;20044;-76
2020/12/27 21:16:08;;;;;;;1.02;0.50;;;7.90;71.10;;;;;;10031134;28;20029;-75
2020/12/27 21:20:59;;;;;;;0.98;0.57;;;7.90;71.50;;;;;;10048046;28;20061;-70
2020/12/27 21:25:50;;;;;;;1.10;0.80;;;7.90;71.50;;;;;;10045542;28;20087;-75
2020/12/27 21:30:49;;;;;;;0.80;0.50;;;8.00;71.40;;;;;;10051366;28;20040;-77
2020/12/27 21:35:39;;;;;;;1.00;0.80;;;8.00;71.70;;;;;;10037363;28;20026;-75
2020/12/27 21:40:30;;;;;;;0.80;0.40;;;7.90;71.80;;;;;;10048108;28;20038;-71
2020/12/27 21:45:21;;;;;;;1.52;0.82;;;8.00;71.90;;;;;;10040366;28;20033;-69
2020/12/27 21:50:13;;;;;;;0.52;0.50;;;8.00;72.00;;;;;;10039978;28;20040;-70
2020/12/27 21:55:04;;;;;;;3.13;1.65;;;8.10;71.90;;;;;;10047358;28;20029;-70
2020/12/27 21:59:55;;;;;;;1.65;1.30;;;8.10;71.70;;;;;;10041703;28;20036;-69
2020/12/27 22:04:46;;;;;;;0.50;0.40;;;8.10;71.60;;;;;;10045506;28;20021;-71
2020/12/27 22:09:37;;;;;;;0.65;0.40;;;8.10;71.60;;;;;;10058516;28;20088;-70
2020/12/27 22:14:28;;;;;;;0.30;0.30;;;8.00;71.40;;;;;;10049279;28;20060;-70
2020/12/27 22:19:18;;;;;;;1.08;0.40;;;8.10;71.40;;;;;;10052054;28;20046;-70
2020/12/27 22:24:09;;;;;;;3.40;0.20;;;8.10;71.20;;;;;;10053236;28;20029;-70
2020/12/27 22:28:59;;;;;;;0.32;0.30;;;8.10;71.10;;;;;;10052186;28;20029;-70
2020/12/27 22:33:50;;;;;;;0.30;0.30;;;8.10;71.10;;;;;;10047941;28;20128;-71
2020/12/27 22:38:40;;;;;;;0.20;0.20;;;8.00;71.00;;;;;;10046446;28;20033;-71
2020/12/27 22:43:31;;;;;;;0.20;0.20;;;8.00;70.90;;;;;;10049010;28;20065;-69
2020/12/27 22:48:21;;;;;;;0.50;0.30;;;8.00;71.00;;;;;;10048651;28;20171;-69
2020/12/27 22:53:12;;;;;;;0.20;0.20;;;8.00;71.10;;;;;;10050966;28;20458;-70
2020/12/27 22:58:02;;;;;;;0.43;0.20;;;7.90;71.10;;;;;;10051566;28;20052;-70
2020/12/27 23:02:53;;;;;;;0.50;0.25;;;7.90;71.30;;;;;;10053831;28;20525;-75
2020/12/27 23:07:44;;;;;;;0.10;0.10;;;7.80;71.50;;;;;;10054093;28;20044;-70
2020/12/27 23:12:35;;;;;;;1.58;0.20;;;7.80;71.80;;;;;;10044967;28;20044;-69
2020/12/27 23:17:26;;;;;;;0.10;0.10;;;7.70;72.20;;;;;;10045156;28;20349;-70
2020/12/27 23:22:18;;;;;;;0.22;0.20;;;7.70;72.40;;;;;;10050219;28;20060;-71
2020/12/27 23:27:08;;;;;;;0.38;0.10;;;7.60;72.40;;;;;;10045945;28;20025;-70
2020/12/27 23:31:59;;;;;;;0.50;0.20;;;7.60;72.40;;;;;;10057117;28;20043;-69
2020/12/27 23:36:51;;;;;;;0.15;0.10;;;7.60;72.30;;;;;;10048085;28;20040;-71
2020/12/27 23:41:47;;;;;;;0.35;0.17;;;7.60;72.20;;;;;;10048518;28;20026;-71
2020/12/27 23:46:38;;;;;;;0.30;0.20;;;7.60;72.20;;;;;;10050731;28;20095;-71
2020/12/27 23:51:29;;;;;;;0.57;0.20;;;7.60;72.10;;;;;;10045090;28;20506;-70
2020/12/27 23:56:19;;;;;;;0.20;0.15;;;7.60;72.20;;;;;;10044060;28;20035;-71
